Time;durP1;ratioP1;P1;durP2;ratioP2;P2;SDS_P1;SDS_P2;PMS_P1;PMS_P2;Temp;Humidity;BMP_temperature;BMP_pressure;BME280_temperature;BME280_humidity;BME280_pressure;Samples;Min_cycle;Max_cycle;Signal;HPM_P1;HPM_P2
2022/07/03 00:01:27;;;;;;;1.77;1.60;;;18.00;99.90;;;;;;5020649;28;20207;-46
2022/07/03 00:03:55;;;;;;;2.03;1.90;;;18.00;99.90;;;;;;5025382;28;20726;-42
2022/07/03 00:06:22;;;;;;;2.00;1.80;;;18.00;99.90;;;;;;5026599;28;20269;-43
2022/07/03 00:08:49;;;;;;;5.17;1.83;;;18.00;99.90;;;;;;5042560;28;20840;-43
2022/07/03 00:11:16;;;;;;;2.27;2.07;;;18.00;99.90;;;;;;5030255;28;20606;-43
2022/07/03 00:13:43;;;;;;;2.70;2.03;;;18.00;99.90;;;;;;5040372;28;20696;-42
2022/07/03 00:16:10;;;;;;;1.80;1.57;;;18.00;99.90;;;;;;5037944;28;20199;-43
2022/07/03 00:18:36;;;;;;;1.97;1.60;;;18.00;99.90;;;;;;5037022;28;20199;-43
2022/07/03 00:21:08;;;;;;;2.13;1.90;;;18.00;99.90;;;;;;5024813;28;20203;-44
2022/07/03 00:23:40;;;;;;;4.50;1.67;;;18.00;99.90;;;;;;5038336;28;20349;-46
2022/07/03 00:26:08;;;;;;;3.43;1.50;;;18.00;99.90;;;;;;5036404;28;20204;-46
2022/07/03 00:28:35;;;;;;;1.50;1.40;;;18.10;99.90;;;;;;5033348;28;20196;-44
2022/07/03 00:31:02;;;;;;;4.37;1.90;;;18.10;99.90;;;;;;5039093;28;20322;-43
2022/07/03 00:33:32;;;;;;;1.80;1.70;;;18.10;99.90;;;;;;5034876;28;20207;-43
2022/07/03 00:36:00;;;;;;;1.83;1.50;;;18.10;99.90;;;;;;5024047;28;20211;-43
2022/07/03 00:38:28;;;;;;;2.47;1.50;;;18.20;99.90;;;;;;5039693;28;20196;-44
2022/07/03 00:40:55;;;;;;;1.93;1.13;;;18.20;99.90;;;;;;5033950;28;20218;-41
2022/07/03 00:43:22;;;;;;;1.70;1.60;;;18.20;99.90;;;;;;5027912;28;20222;-41
2022/07/03 00:45:50;;;;;;;2.40;1.70;;;18.20;99.90;;;;;;5039425;28;20218;-42
2022/07/03 00:48:19;;;;;;;1.60;1.50;;;18.20;99.90;;;;;;5037341;28;20245;-42
2022/07/03 00:50:49;;;;;;;4.23;1.87;;;18.20;99.90;;;;;;5026100;28;20210;-42
2022/07/03 00:53:26;;;;;;;1.90;1.50;;;18.20;99.90;;;;;;5038180;28;20339;-43
2022/07/03 00:55:56;;;;;;;2.40;1.73;;;18.20;99.90;;;;;;5039958;28;20199;-44
2022/07/03 00:58:24;;;;;;;1.70;1.43;;;18.30;99.90;;;;;;5029315;28;20195;-43
2022/07/03 01:00:53;;;;;;;1.47;1.40;;;18.30;99.90;;;;;;5042262;28;20203;-42
2022/07/03 01:03:22;;;;;;;1.57;1.47;;;18.30;99.90;;;;;;5036216;28;20211;-44
2022/07/03 01:05:52;;;;;;;1.80;1.70;;;18.30;99.90;;;;;;5041337;28;20207;-42
2022/07/03 01:08:27;;;;;;;1.30;1.23;;;18.30;99.90;;;;;;5020906;28;20219;-43
2022/07/03 01:11:04;;;;;;;1.50;1.40;;;18.30;99.90;;;;;;5037108;28;20210;-42
2022/07/03 01:13:41;;;;;;;2.40;1.37;;;18.30;99.90;;;;;;5028876;28;20226;-41
2022/07/03 01:16:23;;;;;;;1.67;1.57;;;18.30;99.90;;;;;;5039644;28;20205;-45
2022/07/03 01:18:54;;;;;;;1.47;1.40;;;18.30;99.90;;;;;;5042059;28;20202;-42
2022/07/03 01:21:31;;;;;;;2.03;1.50;;;18.30;99.90;;;;;;5023734;28;22244;-42
2022/07/03 01:24:29;;;;;;;1.30;1.30;;;18.30;99.90;;;;;;5040221;28;20222;-44
2022/07/03 01:27:04;;;;;;;1.63;1.53;;;18.30;99.90;;;;;;5037776;28;20219;-41
2022/07/03 01:29:39;;;;;;;2.50;1.53;;;18.30;99.90;;;;;;5034350;28;20889;-42
2022/07/03 01:32:08;;;;;;;2.90;1.43;;;18.20;99.90;;;;;;5039951;28;20198;-42
2022/07/03 01:34:38;;;;;;;2.10;1.57;;;18.20;99.90;;;;;;5036146;28;20343;-43
2022/07/03 01:37:07;;;;;;;1.70;1.60;;;18.20;99.90;;;;;;5026868;28;20226;-44
2022/07/03 01:39:36;;;;;;;1.43;1.33;;;18.20;99.90;;;;;;5039547;28;20191;-44
2022/07/03 01:42:06;;;;;;;1.60;1.50;;;18.20;99.90;;;;;;5039145;28;20680;-41
2022/07/03 01:44:34;;;;;;;1.60;1.50;;;18.20;99.90;;;;;;5035381;28;20223;-43
2022/07/03 01:47:03;;;;;;;1.50;1.40;;;18.20;99.90;;;;;;5034483;28;20215;-42
2022/07/03 01:49:33;;;;;;;1.50;1.40;;;18.20;99.90;;;;;;5035725;28;20304;-43
2022/07/03 01:52:02;;;;;;;1.43;1.20;;;18.20;99.90;;;;;;5026856;28;21073;-46
2022/07/03 01:54:32;;;;;;;2.03;1.50;;;18.20;99.90;;;;;;5043153;28;20312;-46
2022/07/03 01:57:01;;;;;;;1.63;1.40;;;18.10;99.90;;;;;;5043986;28;20206;-49
2022/07/03 01:59:29;;;;;;;1.77;1.67;;;18.20;99.90;;;;;;5034849;28;20203;-44
2022/07/03 02:02:05;;;;;;;1.77;1.67;;;18.20;99.90;;;;;;5043058;28;20210;-44
2022/07/03 02:04:34;;;;;;;3.20;1.53;;;18.20;99.90;;;;;;5043703;28;20756;-44
2022/07/03 02:07:05;;;;;;;1.33;1.33;;;18.20;99.90;;;;;;5039933;28;20223;-44
2022/07/03 02:09:41;;;;;;;1.83;1.50;;;18.20;99.90;;;;;;5037705;28;20203;-47
2022/07/03 02:12:14;;;;;;;2.07;1.37;;;18.20;99.90;;;;;;5042674;28;20667;-45
2022/07/03 02:14:49;;;;;;;1.50;1.40;;;18.20;99.90;;;;;;5036189;28;20200;-44
2022/07/03 02:17:19;;;;;;;2.17;1.57;;;18.20;99.90;;;;;;5037479;28;20206;-42
2022/07/03 02:19:56;;;;;;;1.50;1.40;;;18.20;99.90;;;;;;5043838;28;20653;-42
2022/07/03 02:22:28;;;;;;;1.30;1.27;;;18.20;99.90;;;;;;5023655;28;23620;-43
2022/07/03 02:25:03;;;;;;;3.80;1.60;;;18.10;99.90;;;;;;5039290;28;20195;-42
2022/07/03 02:27:39;;;;;;;1.60;1.50;;;18.10;99.90;;;;;;5041899;28;20949;-42
2022/07/03 02:30:09;;;;;;;2.47;1.50;;;18.10;99.90;;;;;;5033797;28;20206;-43
2022/07/03 02:32:41;;;;;;;1.53;1.40;;;18.10;99.90;;;;;;5041927;28;20259;-41
2022/07/03 02:35:11;;;;;;;3.33;1.53;;;18.10;99.90;;;;;;5040915;28;20206;-42
2022/07/03 02:37:45;;;;;;;2.43;1.67;;;18.10;99.90;;;;;;5043555;28;20195;-42
2022/07/03 02:40:22;;;;;;;2.43;1.60;;;18.00;99.90;;;;;;5026350;28;20301;-44
2022/07/03 02:42:59;;;;;;;1.70;1.40;;;18.00;99.90;;;;;;5043769;28;20219;-41
2022/07/03 02:45:39;;;;;;;3.87;1.37;;;18.00;99.90;;;;;;5031884;28;20195;-41
2022/07/03 02:48:13;;;;;;;4.10;1.60;;;17.90;99.90;;;;;;5039882;28;20227;-42
2022/07/03 02:50:42;;;;;;;5.23;1.40;;;17.80;99.90;;;;;;5044447;28;20206;-42
2022/07/03 02:53:18;;;;;;;1.60;1.27;;;17.70;99.90;;;;;;5043055;28;20306;-43
2022/07/03 02:55:47;;;;;;;1.83;1.73;;;17.70;99.90;;;;;;5030064;28;20211;-42
2022/07/03 02:58:32;;;;;;;2.50;1.67;;;17.70;99.90;;;;;;5041008;28;20202;-42
2022/07/03 03:01:07;;;;;;;1.70;1.60;;;17.70;99.90;;;;;;5031479;28;20203;-42
2022/07/03 03:03:35;;;;;;;2.67;1.50;;;17.60;99.90;;;;;;5041954;28;20203;-41
2022/07/03 03:06:04;;;;;;;1.50;1.40;;;17.60;99.90;;;;;;5038945;28;20210;-42
2022/07/03 03:08:40;;;;;;;3.73;1.80;;;17.60;99.90;;;;;;5042789;28;21012;-41
2022/07/03 03:11:10;;;;;;;1.57;1.47;;;17.50;99.90;;;;;;5025804;28;20602;-43
2022/07/03 03:13:36;;;;;;;1.77;1.67;;;17.50;99.90;;;;;;5041947;28;20226;-44
2022/07/03 03:16:08;;;;;;;2.13;1.63;;;17.50;99.90;;;;;;5036516;28;20218;-42
2022/07/03 03:18:37;;;;;;;2.80;1.70;;;17.50;99.90;;;;;;5039958;28;20188;-43
2022/07/03 03:21:06;;;;;;;2.17;1.50;;;17.40;99.90;;;;;;5042711;28;20231;-44
2022/07/03 03:23:45;;;;;;;1.80;1.70;;;17.40;99.90;;;;;;5037208;28;20215;-42
2022/07/03 03:26:12;;;;;;;1.90;1.80;;;17.30;99.90;;;;;;5020639;28;20203;-42
2022/07/03 03:28:40;;;;;;;2.93;1.50;;;17.30;99.90;;;;;;5041568;28;20292;-42
2022/07/03 03:31:09;;;;;;;1.90;1.80;;;17.30;99.90;;;;;;5033404;28;20264;-43
2022/07/03 03:33:40;;;;;;;2.47;1.70;;;17.30;99.90;;;;;;5040064;28;20940;-42
2022/07/03 03:36:08;;;;;;;1.73;1.63;;;17.30;99.90;;;;;;5039751;28;20285;-44
2022/07/03 03:38:36;;;;;;;1.50;1.40;;;17.30;99.90;;;;;;5042897;28;20191;-43
2022/07/03 03:41:03;;;;;;;1.80;1.70;;;17.30;99.90;;;;;;5031956;28;20257;-43
2022/07/03 03:43:30;;;;;;;1.97;1.80;;;17.20;99.90;;;;;;5031393;28;20226;-43
2022/07/03 03:45:57;;;;;;;4.57;1.77;;;17.30;99.90;;;;;;5035877;28;20577;-42
2022/07/03 03:48:26;;;;;;;1.60;1.50;;;17.20;99.90;;;;;;5033821;28;20353;-42
2022/07/03 03:50:53;;;;;;;2.67;1.80;;;17.20;99.90;;;;;;5043668;28;20199;-44
2022/07/03 03:53:21;;;;;;;2.73;2.03;;;17.20;99.90;;;;;;5029653;28;20986;-41
2022/07/03 03:55:59;;;;;;;1.70;1.60;;;17.20;99.90;;;;;;5042709;28;20206;-42
2022/07/03 03:58:26;;;;;;;1.90;1.80;;;17.10;99.90;;;;;;5025921;28;20202;-42
2022/07/03 04:00:53;;;;;;;2.03;1.83;;;17.10;99.90;;;;;;5042922;28;20207;-42
2022/07/03 04:03:20;;;;;;;2.10;2.00;;;17.10;99.90;;;;;;5032821;28;20255;-41
2022/07/03 04:05:48;;;;;;;1.80;1.60;;;17.10;99.90;;;;;;5039175;28;20680;-41
2022/07/03 04:08:16;;;;;;;2.33;1.73;;;;;;;;;;5030321;28;20217;-41
2022/07/03 04:10:43;;;;;;;1.80;1.70;;;17.00;99.90;;;;;;5042133;28;20277;-42
2022/07/03 04:13:10;;;;;;;4.73;1.47;;;16.90;99.90;;;;;;5026360;28;20221;-42
2022/07/03 04:15:37;;;;;;;2.90;1.77;;;17.00;99.90;;;;;;5032177;28;20207;-59
2022/07/03 04:18:04;;;;;;;1.80;1.70;;;17.10;99.90;;;;;;5033937;28;20203;-65
2022/07/03 04:20:31;;;;;;;1.77;1.67;;;17.00;99.90;;;;;;5040555;28;20963;-64
2022/07/03 04:23:00;;;;;;;1.70;1.60;;;17.00;99.90;;;;;;5040673;28;20215;-62
2022/07/03 04:25:27;;;;;;;1.63;1.53;;;17.00;99.90;;;;;;5035489;28;20498;-62
2022/07/03 04:27:54;;;;;;;2.97;1.80;;;17.00;99.90;;;;;;5034910;28;20215;-60
2022/07/03 04:30:21;;;;;;;1.70;1.60;;;17.00;99.90;;;;;;5021913;28;20212;-60
2022/07/03 04:32:49;;;;;;;2.23;2.00;;;17.10;99.90;;;;;;5043119;28;20215;-61
2022/07/03 04:35:16;;;;;;;1.80;1.70;;;17.10;99.90;;;;;;5031314;28;20274;-61
2022/07/03 04:37:44;;;;;;;1.60;1.50;;;17.10;99.90;;;;;;5041908;28;20669;-60
2022/07/03 04:40:13;;;;;;;2.07;1.70;;;17.10;99.90;;;;;;5033481;28;20252;-61
2022/07/03 04:42:40;;;;;;;3.03;1.73;;;17.20;99.90;;;;;;5039978;28;20215;-60
2022/07/03 04:45:08;;;;;;;1.50;1.40;;;17.30;99.90;;;;;;5022228;28;20660;-60
2022/07/03 04:47:35;;;;;;;3.20;2.00;;;17.30;99.90;;;;;;5029751;28;20194;-60
2022/07/03 04:50:03;;;;;;;1.73;1.60;;;17.40;99.90;;;;;;5033100;28;20598;-62
2022/07/03 04:52:30;;;;;;;1.73;1.60;;;17.30;99.90;;;;;;5029982;28;20731;-64
2022/07/03 04:54:57;;;;;;;1.90;1.80;;;17.50;99.90;;;;;;5040482;28;20194;-64
2022/07/03 04:57:26;;;;;;;1.60;1.50;;;17.50;99.90;;;;;;5035559;28;20205;-65
2022/07/03 04:59:52;;;;;;;1.90;1.70;;;17.60;99.90;;;;;;5042797;28;20206;-64
2022/07/03 05:02:19;;;;;;;2.70;1.53;;;17.80;99.90;;;;;;5023069;28;20203;-62
2022/07/03 05:04:47;;;;;;;1.83;1.50;;;17.90;99.90;;;;;;5038890;28;20202;-62
2022/07/03 05:07:13;;;;;;;1.80;1.70;;;18.00;99.90;;;;;;5029190;28;20211;-63
2022/07/03 05:09:40;;;;;;;2.57;1.47;;;17.90;99.90;;;;;;5043099;28;20686;-63
2022/07/03 05:12:08;;;;;;;2.13;1.83;;;18.00;99.90;;;;;;5040865;28;20203;-62
2022/07/03 05:14:36;;;;;;;1.80;1.70;;;18.10;99.90;;;;;;5040309;28;20234;-62
2022/07/03 05:17:03;;;;;;;1.90;1.80;;;18.20;99.90;;;;;;5025137;28;20211;-62
2022/07/03 05:19:30;;;;;;;1.83;1.73;;;18.30;99.90;;;;;;5038656;28;20863;-62
2022/07/03 05:21:57;;;;;;;1.77;1.67;;;18.40;99.90;;;;;;5035170;28;20238;-62
2022/07/03 05:24:24;;;;;;;1.63;1.50;;;18.40;99.90;;;;;;5038924;28;20219;-62
2022/07/03 05:26:51;;;;;;;1.80;1.70;;;18.50;99.90;;;;;;5045357;28;20231;-62
2022/07/03 05:29:18;;;;;;;1.50;1.40;;;18.60;99.90;;;;;;5043249;28;20230;-64
2022/07/03 05:31:46;;;;;;;1.50;1.40;;;18.60;99.90;;;;;;5031665;28;20207;-63
2022/07/03 05:34:13;;;;;;;2.63;1.73;;;18.70;99.90;;;;;;5042649;28;20231;-62
2022/07/03 05:36:40;;;;;;;1.90;1.80;;;18.80;99.90;;;;;;5043827;28;20199;-63
2022/07/03 05:41:52;;;;;;;1.93;1.63;;;18.90;99.90;;;;;;5034110;28;20202;-62
2022/07/03 05:44:18;;;;;;;2.57;1.70;;;19.00;99.90;;;;;;5046407;28;20564;-62
2022/07/03 05:46:47;;;;;;;1.60;1.50;;;19.00;99.90;;;;;;5017983;28;20720;-63
2022/07/03 05:49:14;;;;;;;1.63;1.53;;;19.10;99.90;;;;;;5046250;28;20219;-63
2022/07/03 05:51:41;;;;;;;1.80;1.70;;;19.20;99.90;;;;;;5039998;28;20207;-63
2022/07/03 05:54:08;;;;;;;1.50;1.40;;;19.30;99.90;;;;;;5031795;28;20219;-62
2022/07/03 05:56:34;;;;;;;1.50;1.40;;;19.30;99.90;;;;;;5044871;28;20206;-59
2022/07/03 05:59:01;;;;;;;1.93;1.80;;;19.40;99.90;;;;;;5030855;28;20200;-61
2022/07/03 06:01:28;;;;;;;1.70;1.60;;;19.50;99.90;;;;;;5033295;28;20208;-61
2022/07/03 06:03:56;;;;;;;1.87;1.40;;;19.60;99.90;;;;;;5018212;28;20223;-60
2022/07/03 06:06:23;;;;;;;1.90;1.80;;;19.70;99.90;;;;;;5042505;28;20794;-60
2022/07/03 06:08:49;;;;;;;1.80;1.70;;;19.80;99.90;;;;;;5032997;28;20219;-60
2022/07/03 06:11:16;;;;;;;2.40;1.53;;;20.00;99.90;;;;;;5036526;28;20215;-61
2022/07/03 06:13:43;;;;;;;1.63;1.40;;;20.10;99.90;;;;;;5039808;28;20219;-61
2022/07/03 06:16:10;;;;;;;2.03;1.63;;;20.20;99.90;;;;;;5037116;28;20668;-61
2022/07/03 06:18:36;;;;;;;3.17;1.50;;;20.40;99.90;;;;;;5022765;28;20238;-61
2022/07/03 06:21:04;;;;;;;1.77;1.50;;;20.60;99.90;;;;;;5026196;28;20208;-61
2022/07/03 06:23:31;;;;;;;1.60;1.50;;;20.70;99.90;;;;;;5032410;28;20231;-61
2022/07/03 06:25:58;;;;;;;4.20;1.40;;;20.80;99.90;;;;;;5037285;28;20187;-61
2022/07/03 06:28:25;;;;;;;1.97;1.43;;;20.90;99.90;;;;;;5039514;28;20304;-61
2022/07/03 06:30:52;;;;;;;1.50;1.40;;;21.10;99.80;;;;;;5026313;28;20256;-61
2022/07/03 06:33:19;;;;;;;2.00;1.70;;;21.10;99.80;;;;;;5026006;28;20231;-61
2022/07/03 06:35:46;;;;;;;2.30;1.50;;;21.20;99.70;;;;;;5033109;28;20286;-62
2022/07/03 06:38:14;;;;;;;2.30;1.80;;;21.20;99.90;;;;;;5039559;28;20203;-62
2022/07/03 06:40:41;;;;;;;2.33;1.40;;;21.30;99.70;;;;;;5030576;28;20206;-61
2022/07/03 06:43:08;;;;;;;1.53;1.27;;;21.40;99.60;;;;;;5039258;28;20218;-62
2022/07/03 06:45:35;;;;;;;3.97;3.10;;;21.40;99.30;;;;;;5041682;28;20210;-62
2022/07/03 06:48:02;;;;;;;3.80;1.57;;;21.50;98.90;;;;;;5028683;28;20292;-62
2022/07/03 06:50:29;;;;;;;2.97;2.20;;;21.60;98.70;;;;;;5023748;28;20233;-62
2022/07/03 06:52:56;;;;;;;2.63;1.50;;;21.70;98.70;;;;;;5031990;28;20215;-62
2022/07/03 06:55:24;;;;;;;2.43;1.60;;;21.80;98.30;;;;;;5030898;28;20203;-60
2022/07/03 06:57:51;;;;;;;1.53;1.43;;;21.80;98.00;;;;;;5038289;28;20199;-60
2022/07/03 07:00:18;;;;;;;2.13;1.70;;;21.80;97.80;;;;;;5043451;28;20196;-61
2022/07/03 07:02:45;;;;;;;1.27;1.17;;;21.80;97.60;;;;;;5030654;28;20219;-61
2022/07/03 07:05:12;;;;;;;1.57;1.47;;;21.90;97.50;;;;;;5026084;28;20380;-62
2022/07/03 07:07:38;;;;;;;1.77;1.30;;;21.90;97.00;;;;;;5024976;28;20207;-61
2022/07/03 07:10:07;;;;;;;1.33;1.13;;;21.90;96.90;;;;;;5036862;28;20226;-61
2022/07/03 07:12:35;;;;;;;1.20;1.20;;;21.90;96.90;;;;;;5022750;28;20607;-62
2022/07/03 07:15:02;;;;;;;1.90;1.57;;;22.00;96.60;;;;;;5032073;28;20206;-61
2022/07/03 07:17:29;;;;;;;11.40;7.97;;;22.00;96.60;;;;;;5038113;28;20210;-61
2022/07/03 07:19:56;;;;;;;1.80;1.70;;;22.10;96.60;;;;;;5023121;28;20208;-61
2022/07/03 07:22:25;;;;;;;2.90;1.42;;;22.10;96.70;;;;;;5038710;28;20280;-61
2022/07/03 07:24:52;;;;;;;2.35;1.30;;;22.10;96.90;;;;;;5042667;28;20203;-62
2022/07/03 07:27:19;;;;;;;1.73;1.23;;;22.20;96.50;;;;;;5029437;28;20195;-61
2022/07/03 07:29:47;;;;;;;1.45;1.35;;;22.20;96.40;;;;;;5039420;28;20879;-61
2022/07/03 07:32:14;;;;;;;1.60;1.50;;;22.30;96.20;;;;;;5030145;28;20214;-62
2022/07/03 07:34:41;;;;;;;1.63;1.30;;;22.30;96.00;;;;;;5032528;28;20261;-59
2022/07/03 07:37:08;;;;;;;2.47;1.10;;;22.20;96.10;;;;;;5015951;28;20211;-61
2022/07/03 07:39:34;;;;;;;2.30;1.63;;;22.30;96.50;;;;;;5037794;28;20530;-62
2022/07/03 07:42:01;;;;;;;1.73;1.35;;;22.30;96.00;;;;;;5014037;28;20207;-61
2022/07/03 07:44:28;;;;;;;1.63;1.00;;;22.30;95.90;;;;;;5037894;28;20215;-60
2022/07/03 07:46:55;;;;;;;1.50;1.30;;;22.30;95.80;;;;;;5023396;28;20211;-61
2022/07/03 07:49:22;;;;;;;2.80;1.13;;;22.40;96.00;;;;;;5040093;28;20224;-62
2022/07/03 07:51:49;;;;;;;1.92;1.63;;;22.30;96.30;;;;;;5021170;28;20200;-62
2022/07/03 07:54:16;;;;;;;1.67;1.52;;;22.30;96.10;;;;;;5034298;28;20680;-62
2022/07/03 07:56:43;;;;;;;1.80;1.60;;;22.40;95.80;;;;;;5022338;28;20203;-62
2022/07/03 07:59:10;;;;;;;2.40;1.10;;;22.40;95.80;;;;;;5037839;28;20200;-61
2022/07/03 08:07:07;;;;;;;2.92;1.35;;;22.60;94.90;;;;;;5017251;28;20245;-62
2022/07/03 08:09:34;;;;;;;2.55;1.55;;;22.80;95.30;;;;;;5042638;28;20215;-62
2022/07/03 08:12:01;;;;;;;1.48;1.38;;;22.80;95.60;;;;;;5030189;28;20882;-62
2022/07/03 08:14:28;;;;;;;1.58;1.48;;;23.00;95.10;;;;;;5040009;28;20273;-62
2022/07/03 08:16:54;;;;;;;1.23;1.15;;;23.00;95.00;;;;;;5029226;28;20207;-62
2022/07/03 08:19:23;;;;;;;1.27;1.27;;;23.00;94.80;;;;;;5038794;28;20664;-62
2022/07/03 08:21:50;;;;;;;2.85;1.35;;;23.00;94.60;;;;;;5027509;28;20959;-62
2022/07/03 08:24:17;;;;;;;1.60;1.50;;;23.10;95.00;;;;;;5023008;28;20219;-62
2022/07/03 08:26:44;;;;;;;2.05;1.30;;;23.10;94.80;;;;;;5034376;28;20202;-62
2022/07/03 08:29:11;;;;;;;1.95;1.30;;;23.20;93.90;;;;;;5035426;28;20302;-63
2022/07/03 08:31:38;;;;;;;1.30;1.20;;;23.20;93.40;;;;;;5034948;28;20669;-62
2022/07/03 08:34:05;;;;;;;2.33;1.38;;;23.20;93.40;;;;;;5034157;28;20306;-66
2022/07/03 08:36:33;;;;;;;4.57;1.38;;;23.30;93.10;;;;;;5036977;28;20245;-64
2022/07/03 08:39:00;;;;;;;1.90;1.30;;;23.30;93.20;;;;;;5013396;28;20293;-66
2022/07/03 08:41:28;;;;;;;2.55;1.33;;;23.30;94.20;;;;;;5039390;28;20677;-66
2022/07/03 08:43:56;;;;;;;1.50;1.40;;;23.30;94.30;;;;;;5029041;28;20226;-66
2022/07/03 08:46:22;;;;;;;1.40;1.30;;;23.40;93.90;;;;;;5037652;28;20207;-64
2022/07/03 08:48:51;;;;;;;2.92;1.23;;;23.40;93.90;;;;;;5024883;28;20204;-67
2022/07/03 08:51:20;;;;;;;1.35;1.25;;;23.40;94.00;;;;;;5025196;28;20455;-67
2022/07/03 08:53:49;;;;;;;2.33;1.48;;;23.40;94.00;;;;;;5043665;28;20703;-66
2022/07/03 08:56:16;;;;;;;2.28;1.25;;;23.50;93.50;;;;;;5015504;28;20203;-66
2022/07/03 08:58:43;;;;;;;1.88;1.40;;;23.60;93.40;;;;;;5030231;28;20286;-67
2022/07/03 09:01:11;;;;;;;1.17;1.17;;;23.80;93.10;;;;;;5032261;28;20198;-66
2022/07/03 09:03:39;;;;;;;1.23;1.13;;;23.90;92.50;;;;;;5035362;28;20760;-64
2022/07/03 09:06:07;;;;;;;3.53;1.30;;;24.20;91.70;;;;;;5041954;28;20682;-65
2022/07/03 09:08:35;;;;;;;1.75;1.20;;;24.20;91.40;;;;;;5032943;28;20200;-62
2022/07/03 09:11:04;;;;;;;1.40;1.20;;;24.30;91.20;;;;;;5026142;28;20580;-65
2022/07/03 09:13:31;;;;;;;2.17;1.30;;;24.20;90.90;;;;;;5034329;28;20219;-64
2022/07/03 09:15:58;;;;;;;2.08;1.30;;;24.10;91.00;;;;;;5034550;28;20207;-63
2022/07/03 09:18:38;;;;;;;1.40;1.20;;;24.00;91.00;;;;;;5029566;28;20258;-62
2022/07/03 09:21:08;;;;;;;1.02;1.00;;;24.00;90.50;;;;;;5027349;28;20681;-63
2022/07/03 09:23:37;;;;;;;2.03;1.67;;;23.90;90.40;;;;;;5028399;28;20215;-63
2022/07/03 09:26:06;;;;;;;3.00;1.33;;;23.80;90.20;;;;;;5019692;28;20215;-63
2022/07/03 09:28:45;;;;;;;1.50;1.40;;;23.70;90.80;;;;;;5032177;28;20199;-63
2022/07/03 09:31:13;;;;;;;1.23;1.13;;;23.70;91.20;;;;;;5027260;28;20906;-62
2022/07/03 09:33:56;;;;;;;1.83;1.40;;;23.70;91.70;;;;;;5039484;28;20222;-63
2022/07/03 09:36:37;;;;;;;1.85;1.38;;;23.70;91.90;;;;;;5030434;28;20223;-64
2022/07/03 09:39:15;;;;;;;1.90;1.20;;;23.70;92.10;;;;;;5035310;28;20452;-63
2022/07/03 09:42:02;;;;;;;1.58;1.48;;;23.70;92.20;;;;;;5023221;28;20731;-63
2022/07/03 09:44:35;;;;;;;5.00;1.58;;;23.70;92.10;;;;;;5032893;28;20217;-63
2022/07/03 09:47:10;;;;;;;2.17;1.55;;;23.70;91.90;;;;;;5029282;28;20211;-63
2022/07/03 09:49:48;;;;;;;3.45;1.45;;;23.60;91.80;;;;;;5036874;28;20214;-63
2022/07/03 09:52:34;;;;;;;1.42;1.30;;;23.50;92.00;;;;;;5026957;28;20248;-62
2022/07/03 09:55:03;;;;;;;1.70;1.60;;;23.50;92.40;;;;;;5033599;28;20250;-62
2022/07/03 09:57:31;;;;;;;1.38;1.23;;;23.40;92.50;;;;;;5019765;28;20233;-59
2022/07/03 10:00:11;;;;;;;1.42;1.33;;;23.40;92.80;;;;;;5030279;28;20206;-61
2022/07/03 10:02:52;;;;;;;5.25;1.80;;;23.40;92.90;;;;;;5028266;28;20254;-61
2022/07/03 10:05:21;;;;;;;1.60;1.50;;;23.50;93.20;;;;;;5034063;28;20203;-61
2022/07/03 10:07:52;;;;;;;2.35;1.58;;;23.50;93.30;;;;;;5032182;28;20208;-60
2022/07/03 10:10:21;;;;;;;2.83;1.40;;;23.60;93.40;;;;;;5036063;28;20219;-60
2022/07/03 10:12:51;;;;;;;4.40;1.42;;;23.70;93.30;;;;;;5023952;28;20227;-61
2022/07/03 10:15:19;;;;;;;1.50;1.40;;;23.80;92.90;;;;;;5034052;28;20192;-61
2022/07/03 10:17:48;;;;;;;2.90;1.70;;;23.90;92.60;;;;;;5031741;28;20227;-61
2022/07/03 10:20:16;;;;;;;2.95;1.40;;;23.90;92.40;;;;;;5034111;28;20315;-61
2022/07/03 10:22:44;;;;;;;1.83;1.60;;;23.90;92.40;;;;;;5037186;28;20234;-61
2022/07/03 10:25:11;;;;;;;2.83;1.27;;;24.00;92.00;;;;;;5037282;28;20210;-61
2022/07/03 10:27:40;;;;;;;1.42;1.08;;;24.00;92.00;;;;;;5027398;28;20273;-61
2022/07/03 10:30:10;;;;;;;4.65;1.30;;;24.10;90.80;;;;;;5034522;28;20219;-62
2022/07/03 10:32:38;;;;;;;2.15;1.35;;;24.20;89.10;;;;;;5021902;28;20682;-61
2022/07/03 10:35:07;;;;;;;1.40;1.15;;;24.20;86.00;;;;;;5024790;28;20676;-61
2022/07/03 10:37:43;;;;;;;2.70;1.27;;;24.30;86.00;;;;;;5024223;28;20211;-61
2022/07/03 10:46:15;;;;;;;1.20;0.80;;;24.50;85.90;;;;;;5034842;28;20198;-61
2022/07/03 10:49:01;;;;;;;2.25;1.20;;;24.70;82.70;;;;;;5027279;28;20200;-62
2022/07/03 10:51:30;;;;;;;1.52;0.90;;;24.70;81.00;;;;;;5035679;28;20239;-62
2022/07/03 10:54:16;;;;;;;0.77;0.77;;;24.70;82.70;;;;;;5027804;28;21735;-62
2022/07/03 10:57:05;;;;;;;3.95;1.27;;;24.80;81.30;;;;;;5025471;28;20212;-62
2022/07/03 11:00:12;;;;;;;2.65;1.00;;;24.90;80.00;;;;;;5024741;28;20214;-62
2022/07/03 11:02:41;;;;;;;1.08;1.00;;;24.80;79.10;;;;;;5036377;28;20578;-63
2022/07/03 11:05:10;;;;;;;4.88;1.10;;;24.90;80.10;;;;;;5033571;28;20210;-62
2022/07/03 11:08:02;;;;;;;1.15;0.90;;;25.10;81.10;;;;;;5031393;28;20215;-62
2022/07/03 11:10:35;;;;;;;0.65;0.65;;;25.10;81.30;;;;;;5036127;28;20207;-62
2022/07/03 11:13:04;;;;;;;2.63;0.93;;;25.20;79.80;;;;;;5010864;28;20230;-62
2022/07/03 11:15:32;;;;;;;3.00;1.00;;;25.20;79.00;;;;;;5033065;28;20207;-62
2022/07/03 11:18:18;;;;;;;1.77;0.98;;;25.30;78.00;;;;;;5030288;28;20210;-62
2022/07/03 11:21:31;;;;;;;2.22;0.90;;;25.20;78.70;;;;;;5023316;28;20206;-62
2022/07/03 11:24:35;;;;;;;0.90;0.90;;;25.30;79.60;;;;;;5018733;28;20604;-61
2022/07/03 11:27:23;;;;;;;1.00;0.90;;;25.60;76.60;;;;;;5028047;28;20218;-61
2022/07/03 11:29:51;;;;;;;2.30;1.13;;;25.60;76.60;;;;;;5018831;28;22209;-64
2022/07/03 11:32:52;;;;;;;1.88;0.90;;;25.80;75.60;;;;;;5032037;28;20200;-64
2022/07/03 11:35:50;;;;;;;1.00;0.90;;;25.90;75.80;;;;;;5013615;28;20218;-64
2022/07/03 11:38:20;;;;;;;0.88;0.88;;;26.00;75.70;;;;;;5033704;28;20223;-64
2022/07/03 11:40:49;;;;;;;1.27;1.08;;;26.10;74.00;;;;;;5030885;28;20218;-64
2022/07/03 11:43:16;;;;;;;1.08;0.90;;;26.20;73.30;;;;;;5024680;28;20506;-65
2022/07/03 11:45:43;;;;;;;1.77;0.90;;;26.20;73.50;;;;;;5016833;28;20219;-65
2022/07/03 11:48:13;;;;;;;2.05;0.88;;;26.10;72.90;;;;;;5021608;28;20211;-65
2022/07/03 11:50:41;;;;;;;0.85;0.85;;;26.00;73.70;;;;;;5026506;28;20212;-64
2022/07/03 11:53:20;;;;;;;3.95;1.17;;;26.10;73.50;;;;;;5030520;28;20269;-65
2022/07/03 11:55:49;;;;;;;1.50;0.98;;;26.20;73.30;;;;;;5031365;28;20544;-65
2022/07/03 11:58:16;;;;;;;3.20;1.15;;;26.30;74.10;;;;;;5032699;28;20211;-65
2022/07/03 12:00:42;;;;;;;1.70;1.23;;;26.40;75.00;;;;;;5011149;28;20196;-65
2022/07/03 12:03:15;;;;;;;1.90;1.10;;;26.50;73.40;;;;;;5030738;28;20691;-65
2022/07/03 12:05:51;;;;;;;1.33;1.20;;;26.60;73.00;;;;;;5038785;28;20204;-64
2022/07/03 12:08:24;;;;;;;1.35;1.10;;;26.50;75.50;;;;;;5026173;28;20207;-64
2022/07/03 12:10:57;;;;;;;2.35;1.10;;;26.30;76.10;;;;;;5034883;28;20219;-64
2022/07/03 12:13:25;;;;;;;1.60;1.10;;;26.30;76.00;;;;;;5036809;28;20218;-65
2022/07/03 12:15:52;;;;;;;1.60;1.00;;;26.50;77.50;;;;;;5027497;28;20214;-63
2022/07/03 12:18:19;;;;;;;1.95;1.30;;;26.50;77.90;;;;;;5031737;28;20202;-64
2022/07/03 12:20:46;;;;;;;1.33;1.10;;;26.40;77.30;;;;;;5035534;28;20568;-65
2022/07/03 12:23:13;;;;;;;1.27;1.00;;;26.40;77.30;;;;;;5025250;28;20213;-65
2022/07/03 12:25:41;;;;;;;2.00;0.75;;;26.30;75.70;;;;;;5040096;28;20291;-64
2022/07/03 12:28:11;;;;;;;1.38;0.90;;;26.10;74.40;;;;;;5030446;28;20211;-65
2022/07/03 12:30:38;;;;;;;1.88;1.00;;;25.90;72.90;;;;;;5042826;28;20223;-64
2022/07/03 12:33:06;;;;;;;3.95;0.88;;;25.80;73.00;;;;;;5016806;28;20223;-65
2022/07/03 12:35:33;;;;;;;4.00;2.95;;;25.80;72.30;;;;;;5036912;28;20203;-64
2022/07/03 12:38:00;;;;;;;2.05;1.00;;;25.90;72.60;;;;;;5026573;28;20203;-62
2022/07/03 12:40:27;;;;;;;3.78;0.88;;;26.20;73.10;;;;;;5032555;28;20706;-64
2022/07/03 12:42:56;;;;;;;1.38;1.15;;;26.30;70.70;;;;;;5035450;28;20227;-64
2022/07/03 12:45:24;;;;;;;1.13;0.80;;;26.40;70.20;;;;;;5033874;28;20880;-65
2022/07/03 12:47:59;;;;;;;1.02;0.80;;;26.50;69.50;;;;;;5022286;28;20210;-65
2022/07/03 12:50:25;;;;;;;0.93;0.90;;;26.70;69.30;;;;;;5034358;28;20302;-65
2022/07/03 12:52:54;;;;;;;1.23;0.68;;;26.90;69.80;;;;;;5038271;28;20215;-65
2022/07/03 12:55:26;;;;;;;0.80;0.80;;;27.00;68.40;;;;;;5023862;28;20212;-65
2022/07/03 13:00:56;;;;;;;2.47;0.80;;;27.30;66.80;;;;;;5034828;28;20273;-66
2022/07/03 13:03:27;;;;;;;0.88;0.77;;;27.30;65.90;;;;;;5017865;28;20223;-66
2022/07/03 13:05:54;;;;;;;1.13;0.75;;;27.60;66.20;;;;;;5033281;28;20206;-66
2022/07/03 13:08:21;;;;;;;0.70;0.70;;;27.90;65.30;;;;;;5041375;28;20199;-66
2022/07/03 13:10:56;;;;;;;2.95;2.67;;;28.30;63.40;;;;;;5025866;28;20227;-66
2022/07/03 13:13:24;;;;;;;1.48;0.60;;;28.50;62.70;;;;;;5035783;28;20246;-66
2022/07/03 13:15:51;;;;;;;0.88;0.80;;;28.80;61.00;;;;;;5025649;28;20190;-66
2022/07/03 13:18:18;;;;;;;3.38;0.70;;;29.20;62.80;;;;;;5030713;28;20204;-66
2022/07/03 13:20:45;;;;;;;1.58;0.88;;;29.60;61.70;;;;;;5018453;28;20195;-63